Terminal Aerodrome Forecast
Issued by NWS

Home | Current Version | Previous Version | Graphics & Text | Print | Product List | Glossary On
Versions: 1 2 3 4 5 6 7 8 9 10 11 12 13 14 15 16 17 18 19 20 21 22 23 24 25 26 27 28 29 30 31 32 33 34 35 36 37 38 39
000
FTUS43 KGRB 192300 RRA
TAFRHI
TAF
KRHI 192343Z 2000/2024 20012G20KT P6SM VCSH BKN040 OVC070
      WS015/21040KT
     FM200400 22010G17KT 5SM BR SCT008 BKN015 WS015/24040KT
      TEMPO 2005/2009 3SM BR OVC005
     FM200900 24008KT 3SM BR OVC005
     FM201400 27009G15KT P6SM BKN015
     FM201700 28011G18KT P6SM SCT025 SCT100=

USA.gov is the U.S. government's official web portal to all federal, state and local government web resources and services.